createdAt,value
2023-02-08T00:00:06.812Z,5.90
2023-02-08T00:02:33.545Z,5.63
2023-02-08T00:05:00.260Z,6.60
2023-02-08T00:07:27.041Z,6.90
2023-02-08T00:09:53.808Z,6.85
2023-02-08T00:12:20.550Z,6.00
2023-02-08T00:14:47.406Z,7.10
2023-02-08T00:17:14.091Z,6.30
2023-02-08T00:19:40.843Z,7.50
2023-02-08T00:22:07.555Z,7.03
2023-02-08T00:24:34.203Z,5.95
2023-02-08T00:27:01.023Z,6.47
2023-02-08T00:29:27.746Z,6.73
2023-02-08T00:31:54.568Z,6.70
2023-02-08T00:34:21.273Z,6.70
2023-02-08T00:36:48.040Z,6.40
2023-02-08T00:39:15.050Z,7.20
2023-02-08T00:41:41.859Z,5.90
2023-02-08T00:44:08.794Z,5.60
2023-02-08T00:46:35.571Z,6.80
2023-02-08T00:49:02.416Z,6.90
2023-02-08T00:51:29.233Z,7.60
2023-02-08T00:53:55.953Z,7.00
2023-02-08T00:56:22.917Z,7.37
2023-02-08T00:58:49.670Z,7.47
2023-02-08T01:01:16.486Z,6.80
2023-02-08T01:03:44.175Z,6.80
2023-02-08T01:06:15.645Z,7.40
2023-02-08T01:08:42.748Z,7.17
2023-02-08T01:11:15.985Z,6.80
2023-02-08T01:13:42.732Z,6.73
2023-02-08T01:16:17.912Z,6.70
2023-02-08T01:18:46.315Z,7.00
2023-02-08T01:21:19.117Z,7.00
2023-02-08T01:23:47.234Z,7.30
2023-02-08T01:26:14.950Z,6.87
2023-02-08T01:28:42.239Z,6.63
2023-02-08T01:31:21.721Z,6.47
2023-02-08T01:33:48.934Z,7.37
2023-02-08T01:36:16.543Z,7.05
2023-02-08T01:38:44.093Z,6.70
2023-02-08T01:41:21.460Z,8.30
2023-02-08T01:44:09.299Z,6.85
2023-02-08T01:46:40.893Z,6.33
2023-02-08T01:49:20.915Z,7.20
2023-02-08T01:52:08.758Z,7.43
2023-02-08T01:54:40.600Z,6.47
2023-02-08T01:57:08.090Z,7.83
2023-02-08T01:59:48.444Z,7.10
2023-02-08T02:02:18.805Z,7.87
2023-02-08T02:04:46.193Z,7.20
2023-02-08T02:07:14.032Z,7.40
2023-02-08T02:09:53.972Z,7.03
2023-02-08T02:12:21.691Z,7.37
2023-02-08T02:14:49.494Z,7.13
2023-02-08T02:17:18.641Z,6.60
2023-02-08T02:20:09.748Z,7.03
2023-02-08T02:22:49.596Z,6.78
2023-02-08T02:25:44.783Z,7.47
2023-02-08T02:28:23.476Z,7.50
2023-02-08T02:31:20.737Z,7.23
2023-02-08T02:34:26.346Z,6.97
2023-02-08T02:37:22.902Z,7.77
2023-02-08T02:40:16.826Z,7.27
2023-02-08T02:43:21.385Z,7.87
2023-02-08T02:46:28.981Z,6.97
2023-02-08T02:49:08.748Z,7.13
2023-02-08T02:51:40.800Z,6.93
2023-02-08T02:54:15.647Z,7.63
2023-02-08T02:56:46.167Z,7.53
2023-02-08T02:59:15.607Z,7.70
2023-02-08T03:01:45.178Z,6.83
2023-02-08T03:04:35.313Z,7.87
2023-02-08T03:07:20.204Z,7.95
2023-02-08T03:10:11.715Z,8.07
2023-02-08T03:12:54.701Z,7.50
2023-02-08T03:15:39.015Z,7.30
2023-02-08T03:18:19.716Z,7.50
2023-02-08T03:21:07.259Z,8.25
2023-02-08T03:24:22.915Z,7.40
2023-02-08T03:27:12.053Z,7.22
2023-02-08T03:29:44.782Z,7.17
2023-02-08T03:32:40.820Z,7.23
2023-02-08T03:35:30.747Z,6.93
2023-02-08T03:38:03.157Z,7.50
2023-02-08T03:40:46.940Z,7.47
2023-02-08T03:43:21.714Z,7.20
2023-02-08T03:46:01.986Z,7.37
2023-02-08T03:48:31.242Z,7.13
2023-02-08T03:51:01.305Z,6.97
2023-02-08T03:53:29.253Z,7.93
2023-02-08T03:56:03.638Z,7.47
2023-02-08T03:58:38.709Z,8.10
2023-02-08T04:01:12.541Z,7.70
2023-02-08T04:03:40.322Z,7.03
2023-02-08T04:06:07.499Z,7.37
2023-02-08T04:08:34.184Z,7.13
2023-02-08T04:11:00.883Z,7.10
2023-02-08T04:13:27.635Z,7.83
2023-02-08T04:15:54.357Z,7.30
2023-02-08T04:18:21.063Z,8.07
2023-02-08T04:20:47.797Z,7.73
2023-02-08T04:23:14.528Z,7.90
2023-02-08T04:25:41.306Z,7.37
2023-02-08T04:28:08.100Z,6.93
2023-02-08T04:30:35.000Z,7.27
2023-02-08T04:33:01.814Z,7.37
2023-02-08T04:35:28.640Z,7.33
2023-02-08T04:37:55.630Z,7.67
2023-02-08T04:40:22.333Z,7.47
2023-02-08T04:42:49.021Z,6.57
2023-02-08T04:45:15.963Z,6.78
2023-02-08T04:47:42.697Z,7.17
2023-02-08T04:50:09.551Z,7.50
2023-02-08T04:52:36.318Z,7.00
2023-02-08T04:55:03.175Z,7.27
2023-02-08T04:57:29.950Z,7.03
2023-02-08T04:59:58.346Z,7.20
2023-02-08T05:02:26.814Z,7.40
2023-02-08T05:04:53.537Z,6.33
2023-02-08T05:07:20.291Z,6.70
2023-02-08T05:09:47.009Z,6.83
2023-02-08T05:12:13.794Z,7.00
2023-02-08T05:14:40.524Z,6.77
2023-02-08T05:17:07.306Z,6.57
2023-02-08T05:19:34.378Z,6.97
2023-02-08T05:22:01.142Z,6.53
2023-02-08T05:24:28.159Z,7.20
2023-02-08T05:26:54.870Z,6.95
2023-02-08T05:29:21.639Z,7.00
2023-02-08T05:31:48.480Z,7.07
2023-02-08T05:34:15.272Z,6.72
2023-02-08T05:36:42.069Z,6.90
2023-02-08T05:39:08.846Z,6.93
2023-02-08T05:41:35.895Z,6.33
2023-02-08T05:44:02.591Z,7.30
2023-02-08T05:46:29.450Z,6.60
2023-02-08T05:48:56.230Z,7.80
2023-02-08T05:51:23.145Z,7.07
2023-02-08T05:53:49.892Z,6.85
2023-02-08T05:56:16.622Z,6.30
2023-02-08T05:58:43.328Z,6.93
2023-02-08T06:01:11.442Z,6.60
2023-02-08T06:03:38.865Z,6.82
2023-02-08T06:06:06.570Z,6.20
2023-02-08T06:08:33.787Z,6.83
2023-02-08T06:11:00.436Z,6.13
2023-02-08T06:13:29.206Z,5.97
2023-02-08T06:15:56.528Z,6.80
2023-02-08T06:18:23.734Z,6.18
2023-02-08T06:20:54.327Z,6.97
2023-02-08T06:23:22.017Z,5.68
2023-02-08T06:25:48.756Z,6.63
2023-02-08T06:28:15.642Z,6.75
2023-02-08T06:30:42.599Z,7.27
2023-02-08T06:33:09.504Z,6.30
2023-02-08T06:35:36.176Z,6.77
2023-02-08T06:38:02.975Z,6.10
2023-02-08T06:40:29.692Z,7.23
2023-02-08T06:42:56.367Z,5.67
2023-02-08T06:45:23.086Z,5.37
2023-02-08T06:47:49.736Z,6.23
2023-02-08T06:50:16.699Z,5.73
2023-02-08T06:52:43.442Z,6.00
2023-02-08T06:55:10.201Z,6.50
2023-02-08T06:57:37.017Z,7.03
2023-02-08T07:00:05.056Z,5.90
2023-02-08T07:02:32.447Z,7.30
2023-02-08T07:04:59.269Z,9.40
2023-02-08T07:07:26.085Z,6.07
2023-02-08T07:09:52.894Z,5.93
2023-02-08T07:12:19.683Z,6.07
2023-02-08T07:14:46.602Z,5.90
2023-02-08T07:17:13.688Z,6.07
2023-02-08T07:19:41.013Z,6.13
2023-02-08T07:22:08.333Z,6.43
2023-02-08T07:24:40.276Z,5.83
2023-02-08T07:27:08.879Z,6.10
2023-02-08T07:29:36.154Z,5.40
2023-02-08T07:32:04.518Z,6.50
2023-02-08T07:34:35.273Z,5.47
2023-02-08T07:37:02.894Z,5.53
2023-02-08T07:39:31.350Z,6.70
2023-02-08T07:41:58.698Z,7.13
2023-02-08T07:44:25.666Z,6.50
2023-02-08T07:46:52.484Z,6.83
2023-02-08T07:49:19.221Z,6.70
2023-02-08T07:51:46.016Z,5.93
2023-02-08T07:54:12.726Z,6.37
2023-02-08T07:56:39.480Z,6.17
2023-02-08T07:59:06.643Z,6.10
2023-02-08T08:01:33.493Z,6.40
2023-02-08T08:04:00.225Z,7.00
2023-02-08T08:06:26.923Z,5.93
2023-02-08T08:08:53.893Z,5.63
2023-02-08T08:11:21.549Z,5.43
2023-02-08T08:13:48.524Z,5.53
2023-02-08T08:16:15.480Z,6.82
2023-02-08T08:18:42.469Z,6.27
2023-02-08T08:21:09.252Z,5.30
2023-02-08T08:23:36.677Z,6.90
2023-02-08T08:26:13.827Z,6.53
2023-02-08T08:28:41.558Z,6.27
2023-02-08T08:31:20.226Z,6.00
2023-02-08T08:33:48.012Z,5.68
2023-02-08T08:36:14.895Z,5.83
2023-02-08T08:38:41.922Z,6.20
2023-02-08T08:41:10.630Z,5.43
2023-02-08T08:43:37.537Z,5.50
2023-02-08T08:46:06.549Z,6.00
2023-02-08T08:48:34.788Z,5.80
2023-02-08T08:51:02.306Z,5.50
2023-02-08T08:53:29.111Z,5.93
2023-02-08T08:55:55.976Z,6.23
2023-02-08T08:58:22.737Z,4.90
2023-02-08T09:00:49.980Z,5.90
2023-02-08T09:03:16.768Z,6.47
2023-02-08T09:05:43.557Z,6.20
2023-02-08T09:08:10.387Z,5.60
2023-02-08T09:10:37.077Z,6.53
2023-02-08T09:13:03.829Z,6.10
2023-02-08T09:15:30.648Z,5.87
2023-02-08T09:17:57.415Z,5.68
2023-02-08T09:20:24.337Z,5.90
2023-02-08T09:22:51.906Z,5.67
2023-02-08T09:25:18.668Z,5.87
2023-02-08T09:27:45.333Z,5.97
2023-02-08T09:30:12.274Z,4.75
2023-02-08T09:32:39.957Z,5.53
2023-02-08T09:35:08.233Z,5.78
2023-02-08T09:37:35.358Z,5.40
2023-02-08T09:40:02.253Z,5.40
2023-02-08T09:42:42.258Z,5.53
2023-02-08T09:45:51.072Z,5.50
2023-02-08T09:48:29.056Z,5.27
2023-02-08T09:51:27.828Z,5.40
2023-02-08T09:54:00.057Z,5.47
2023-02-08T09:56:37.140Z,6.10
2023-02-08T09:59:04.480Z,5.23
2023-02-08T10:01:35.973Z,5.40
2023-02-08T10:04:22.076Z,5.27
2023-02-08T10:06:50.130Z,5.23
2023-02-08T10:09:27.071Z,5.40
2023-02-08T10:12:24.895Z,5.50
2023-02-08T10:15:03.572Z,4.50
2023-02-08T10:17:52.066Z,5.47
2023-02-08T10:20:27.233Z,5.50
2023-02-08T10:23:19.070Z,5.73
2023-02-08T10:26:09.693Z,5.20
2023-02-08T10:29:24.504Z,5.60
2023-02-08T10:31:57.026Z,5.40
2023-02-08T10:34:36.066Z,5.00
2023-02-08T10:37:18.349Z,5.97
2023-02-08T10:39:49.553Z,5.30
2023-02-08T10:42:22.769Z,6.00
2023-02-08T10:45:24.207Z,5.47
2023-02-08T10:48:11.319Z,6.10
2023-02-08T10:50:45.069Z,4.73
2023-02-08T10:53:21.131Z,4.73
2023-02-08T10:55:55.790Z,5.37
2023-02-08T10:58:26.419Z,5.20
2023-02-08T11:00:57.667Z,4.20
2023-02-08T11:03:32.182Z,4.17
2023-02-08T11:06:01.446Z,5.00
2023-02-08T11:08:36.359Z,4.78
2023-02-08T11:11:13.399Z,4.30
2023-02-08T11:13:57.310Z,4.60
2023-02-08T11:16:28.807Z,4.83
2023-02-08T11:19:01.096Z,4.30
2023-02-08T11:21:34.938Z,4.23
2023-02-08T11:24:24.551Z,4.25
2023-02-08T11:26:51.530Z,3.63
2023-02-08T11:29:21.636Z,4.63
2023-02-08T11:32:03.046Z,3.90
2023-02-08T11:34:43.817Z,4.13
2023-02-08T11:37:24.069Z,4.43
2023-02-08T11:39:57.532Z,4.23
2023-02-08T11:42:35.290Z,4.65
2023-02-08T11:45:05.131Z,4.03
2023-02-08T11:47:34.714Z,3.53
2023-02-08T11:50:07.531Z,3.67
2023-02-08T11:52:38.196Z,4.00
2023-02-08T11:55:16.866Z,4.07
2023-02-08T11:57:58.768Z,3.80
2023-02-08T12:00:29.123Z,3.60
2023-02-08T12:03:02.028Z,4.30
2023-02-08T12:06:01.540Z,3.30
2023-02-08T12:08:47.628Z,3.90
2023-02-08T12:11:23.156Z,3.40
2023-02-08T12:14:15.883Z,3.27
2023-02-08T12:16:45.461Z,3.67
2023-02-08T12:19:49.548Z,3.37
2023-02-08T12:22:23.464Z,2.93
2023-02-08T12:25:05.281Z,3.53
2023-02-08T12:27:53.046Z,3.00
2023-02-08T12:31:04.451Z,3.40
2023-02-08T12:34:01.630Z,3.30
2023-02-08T12:37:16.448Z,3.40
2023-02-08T12:40:37.219Z,3.47
2023-02-08T12:43:41.723Z,3.40
2023-02-08T12:46:26.442Z,3.00
2023-02-08T12:49:20.392Z,3.30
2023-02-08T12:52:17.749Z,3.53
2023-02-08T12:54:52.992Z,3.13
2023-02-08T12:57:23.121Z,3.30
2023-02-08T13:00:05.630Z,3.20
2023-02-08T13:02:54.667Z,4.00
2023-02-08T13:05:23.018Z,3.83
2023-02-08T13:08:02.747Z,3.30
2023-02-08T13:10:32.437Z,3.42
2023-02-08T13:13:06.669Z,3.17
2023-02-08T13:15:48.962Z,3.20
2023-02-08T13:18:51.815Z,2.77
2023-02-08T13:21:25.943Z,3.23
2023-02-08T13:23:53.429Z,2.90
2023-02-08T13:26:31.319Z,2.67
2023-02-08T13:29:02.035Z,3.30
2023-02-08T13:31:34.382Z,3.10
2023-02-08T13:34:16.273Z,3.00
2023-02-08T13:36:52.068Z,2.47
2023-02-08T13:39:33.957Z,3.00
2023-02-08T13:42:03.091Z,2.50
2023-02-08T13:44:34.281Z,2.87
2023-02-08T13:47:01.613Z,2.63
2023-02-08T13:49:50.160Z,2.27
2023-02-08T13:52:47.536Z,3.00
2023-02-08T13:55:38.157Z,2.80
2023-02-08T13:58:26.434Z,2.33
2023-02-08T14:01:01.029Z,3.00
2023-02-08T14:03:30.182Z,2.97
2023-02-08T14:06:03.415Z,2.70
2023-02-08T14:08:38.945Z,3.93
2023-02-08T14:11:14.463Z,2.90
2023-02-08T14:13:53.293Z,3.20
2023-02-08T14:16:36.373Z,2.97
2023-02-08T14:19:23.138Z,3.03
2023-02-08T14:22:03.974Z,3.30
2023-02-08T14:24:34.791Z,3.07
2023-02-08T14:27:10.928Z,2.33
2023-02-08T14:29:38.357Z,3.17
2023-02-08T14:32:05.406Z,2.45
2023-02-08T14:34:39.306Z,2.90
2023-02-08T14:37:17.732Z,2.63
2023-02-08T14:39:44.492Z,3.53
2023-02-08T14:42:13.928Z,2.70
2023-02-08T14:44:48.818Z,2.87
2023-02-08T14:47:38.531Z,2.57
2023-02-08T14:50:19.799Z,2.88
2023-02-08T14:52:59.262Z,2.57
2023-02-08T14:55:31.863Z,2.20
2023-02-08T14:58:01.040Z,1.90
2023-02-08T15:00:33.656Z,2.00
2023-02-08T15:03:02.159Z,2.23
2023-02-08T15:05:31.390Z,2.30
2023-02-08T15:08:02.832Z,2.03
2023-02-08T15:10:32.198Z,2.20
2023-02-08T15:13:03.943Z,1.97
2023-02-08T15:15:36.662Z,2.90
2023-02-08T15:18:05.936Z,2.00
2023-02-08T15:20:35.371Z,2.67
2023-02-08T15:23:06.843Z,1.80
2023-02-08T15:25:36.960Z,1.80
2023-02-08T15:28:21.577Z,1.73
2023-02-08T15:31:01.233Z,2.07
2023-02-08T15:33:28.464Z,2.17
2023-02-08T15:36:06.652Z,2.33
2023-02-08T15:38:36.451Z,1.93
2023-02-08T15:41:11.930Z,1.90
2023-02-08T15:43:40.266Z,2.00
2023-02-08T15:46:24.908Z,2.23
2023-02-08T15:48:52.809Z,2.33
2023-02-08T15:51:23.129Z,2.33
2023-02-08T15:53:53.350Z,2.10
2023-02-08T15:56:37.898Z,2.70
2023-02-08T15:59:13.034Z,2.53
2023-02-08T16:01:39.889Z,2.17
2023-02-08T16:04:08.372Z,2.27
2023-02-08T16:06:44.738Z,2.65
2023-02-08T16:09:21.831Z,2.10
2023-02-08T16:11:50.272Z,1.87
2023-02-08T16:14:26.062Z,2.10
2023-02-08T16:16:57.611Z,2.40
2023-02-08T16:19:30.058Z,2.10
2023-02-08T16:22:17.093Z,2.30
2023-02-08T16:24:47.080Z,2.10
2023-02-08T16:27:29.937Z,2.40
2023-02-08T16:29:57.082Z,2.80
2023-02-08T16:32:30.636Z,2.20
2023-02-08T16:34:58.035Z,2.47
2023-02-08T16:37:33.538Z,2.40
2023-02-08T16:40:24.157Z,2.93
2023-02-08T16:42:51.349Z,2.73
2023-02-08T16:45:20.739Z,2.70
2023-02-08T16:47:56.914Z,3.03
2023-02-08T16:50:30.006Z,3.30
2023-02-08T16:53:01.890Z,3.05
2023-02-08T16:55:31.877Z,3.13
2023-02-08T16:57:59.368Z,3.47
2023-02-08T17:00:30.486Z,3.20
2023-02-08T17:02:57.334Z,3.40
2023-02-08T17:05:27.460Z,3.23
2023-02-08T17:07:54.212Z,3.30
2023-02-08T17:10:32.569Z,3.33
2023-02-08T17:13:20.000Z,3.87
2023-02-08T17:15:49.224Z,5.70
2023-02-08T17:18:16.363Z,3.63
2023-02-08T17:20:43.245Z,3.87
2023-02-08T17:23:10.426Z,3.95
2023-02-08T17:25:37.719Z,3.90
2023-02-08T17:28:07.469Z,4.20
2023-02-08T17:30:37.747Z,3.58
2023-02-08T17:33:06.677Z,4.10
2023-02-08T17:35:34.553Z,3.83
2023-02-08T17:38:01.920Z,5.03
2023-02-08T17:40:32.713Z,4.07
2023-02-08T17:43:00.480Z,5.07
2023-02-08T17:45:28.293Z,5.10
2023-02-08T17:47:56.445Z,4.47
2023-02-08T17:50:23.735Z,4.87
2023-02-08T17:52:50.933Z,4.50
2023-02-08T17:55:19.214Z,4.23
2023-02-08T17:57:46.623Z,4.20
2023-02-08T18:00:19.771Z,4.50
2023-02-08T18:02:51.897Z,5.93
2023-02-08T18:05:25.065Z,4.82
2023-02-08T18:07:53.756Z,4.80
2023-02-08T18:10:21.215Z,4.47
2023-02-08T18:12:48.291Z,4.60
2023-02-08T18:15:20.023Z,5.10
2023-02-08T18:17:47.345Z,4.57
2023-02-08T18:20:15.821Z,5.57
2023-02-08T18:22:43.818Z,4.53
2023-02-08T18:25:12.503Z,5.10
2023-02-08T18:27:39.645Z,5.33
2023-02-08T18:30:06.908Z,5.40
2023-02-08T18:32:34.138Z,5.53
2023-02-08T18:35:03.756Z,5.33
2023-02-08T18:37:31.870Z,5.70
2023-02-08T18:39:58.912Z,4.70
2023-02-08T18:42:25.648Z,5.37
2023-02-08T18:44:52.404Z,4.60
2023-02-08T18:47:19.404Z,5.45
2023-02-08T18:49:47.709Z,5.50
2023-02-08T18:52:17.457Z,5.07
2023-02-08T18:54:44.124Z,5.40
2023-02-08T18:57:11.000Z,5.25
2023-02-08T18:59:38.986Z,5.40
2023-02-08T19:02:07.245Z,5.17
2023-02-08T19:04:40.308Z,5.30
2023-02-08T19:07:07.675Z,5.03
2023-02-08T19:09:36.181Z,4.43
2023-02-08T19:12:03.689Z,5.18
2023-02-08T19:14:30.560Z,4.87
2023-02-08T19:16:57.463Z,5.67
2023-02-08T19:19:24.353Z,5.50
2023-02-08T19:21:51.044Z,5.97
2023-02-08T19:24:19.527Z,5.60
2023-02-08T19:26:47.182Z,6.20
2023-02-08T19:29:17.473Z,5.13
2023-02-08T19:31:45.208Z,5.22
2023-02-08T19:34:12.861Z,5.97
2023-02-08T19:36:46.567Z,5.23
2023-02-08T19:39:15.326Z,6.20
2023-02-08T19:41:42.648Z,5.63
2023-02-08T19:44:12.852Z,5.50
2023-02-08T19:46:39.869Z,6.40
2023-02-08T19:49:07.231Z,5.77
2023-02-08T19:51:36.933Z,5.22
2023-02-08T19:54:07.325Z,5.50
2023-02-08T19:56:34.423Z,5.73
2023-02-08T19:59:04.085Z,5.90
2023-02-08T20:01:33.949Z,5.20
2023-02-08T20:04:01.668Z,5.80
2023-02-08T20:06:32.685Z,6.10
2023-02-08T20:09:00.536Z,5.63
2023-02-08T20:11:30.182Z,5.73
2023-02-08T20:13:59.556Z,6.05
2023-02-08T20:16:28.080Z,6.00
2023-02-08T20:18:56.215Z,6.50
2023-02-08T20:21:23.451Z,5.60
2023-02-08T20:23:50.708Z,5.33
2023-02-08T20:26:19.852Z,7.88
2023-02-08T20:28:50.320Z,5.90
2023-02-08T20:31:20.995Z,6.13
2023-02-08T20:33:47.837Z,5.67
2023-02-08T20:36:23.698Z,6.20
2023-02-08T20:38:52.697Z,5.67
2023-02-08T20:41:21.040Z,6.67
2023-02-08T20:43:47.999Z,6.37
2023-02-08T20:46:24.257Z,7.20
2023-02-08T20:48:52.575Z,6.90
2023-02-08T20:51:22.100Z,5.60
2023-02-08T20:53:49.960Z,5.57
2023-02-08T20:56:21.791Z,5.80
2023-02-08T20:58:48.956Z,5.83
2023-02-08T21:01:18.870Z,5.22
2023-02-08T21:03:46.182Z,5.88
2023-02-08T21:06:15.334Z,6.50
2023-02-08T21:08:43.029Z,6.77
2023-02-08T21:11:10.625Z,6.50
2023-02-08T21:13:37.678Z,5.10
2023-02-08T21:16:09.072Z,5.70
2023-02-08T21:18:36.670Z,6.40
2023-02-08T21:21:05.420Z,7.30
2023-02-08T21:23:32.853Z,6.10
2023-02-08T21:26:00.627Z,6.53
2023-02-08T21:28:28.112Z,7.00
2023-02-08T21:30:58.989Z,6.40
2023-02-08T21:33:26.335Z,30.87
2023-02-08T21:35:53.056Z,12.90
2023-02-08T21:38:20.369Z,8.07
2023-02-08T21:40:47.429Z,7.53
2023-02-08T21:43:14.629Z,6.90
2023-02-08T21:45:41.490Z,6.60
2023-02-08T21:48:08.334Z,7.43
2023-02-08T21:50:53.585Z,6.35
2023-02-08T21:53:38.767Z,6.67
2023-02-08T21:56:08.070Z,6.50
2023-02-08T21:58:34.796Z,7.65
2023-02-08T22:01:01.617Z,7.20
2023-02-08T22:03:30.591Z,7.50
2023-02-08T22:06:15.995Z,5.93
2023-02-08T22:08:42.706Z,7.40
2023-02-08T22:11:09.440Z,6.67
2023-02-08T22:13:36.169Z,6.50
2023-02-08T22:16:07.869Z,5.20
2023-02-08T22:18:34.704Z,5.68
2023-02-08T22:21:04.366Z,6.00
2023-02-08T22:23:31.052Z,4.70
2023-02-08T22:25:57.708Z,5.50
2023-02-08T22:28:24.459Z,5.70
2023-02-08T22:30:51.468Z,6.37
2023-02-08T22:33:18.238Z,5.43
2023-02-08T22:35:44.919Z,5.50
2023-02-08T22:38:11.634Z,5.87
2023-02-08T22:40:42.419Z,5.70
2023-02-08T22:43:09.237Z,6.40
2023-02-08T22:45:36.044Z,5.87
2023-02-08T22:48:02.889Z,5.80
2023-02-08T22:50:29.885Z,6.40
2023-02-08T22:52:56.718Z,6.00
2023-02-08T22:55:23.424Z,5.50
2023-02-08T22:57:50.105Z,6.93
2023-02-08T23:00:17.404Z,5.90
2023-02-08T23:02:44.286Z,5.63
2023-02-08T23:05:11.167Z,5.60
2023-02-08T23:07:37.919Z,5.70
2023-02-08T23:10:04.993Z,5.50
2023-02-08T23:12:31.726Z,6.03
2023-02-08T23:14:58.438Z,6.50
2023-02-08T23:17:25.287Z,6.50
2023-02-08T23:19:53.099Z,5.90
2023-02-08T23:22:19.793Z,6.20
2023-02-08T23:24:46.475Z,5.95
2023-02-08T23:27:13.236Z,5.73
2023-02-08T23:29:39.959Z,5.90
2023-02-08T23:32:06.655Z,5.10
2023-02-08T23:34:34.749Z,6.10
2023-02-08T23:37:01.471Z,5.50
2023-02-08T23:39:28.161Z,5.50
2023-02-08T23:41:57.638Z,5.97
2023-02-08T23:44:25.032Z,5.77
2023-02-08T23:46:51.876Z,6.43
2023-02-08T23:49:18.638Z,6.10
2023-02-08T23:51:45.460Z,6.57
2023-02-08T23:54:12.204Z,5.40
2023-02-08T23:56:39.003Z,5.83
2023-02-08T23:59:08.258Z,6.47
